Time;durP1;ratioP1;P1;durP2;ratioP2;P2;SDS_P1;SDS_P2;PMS_P1;PMS_P2;Temp;Humidity;BMP_temperature;BMP_pressure;BME280_temperature;BME280_humidity;BME280_pressure;Samples;Min_cycle;Max_cycle;Signal;HPM_P1;HPM_P2
2023/02/11 00:02:15;;;;;;;28.83;21.20;;;7.70;99.90;;;;;;5053660;28;20453;-57
2023/02/11 00:04:41;;;;;;;27.10;20.77;;;7.60;99.90;;;;;;5053363;28;20981;-58
2023/02/11 00:07:09;;;;;;;24.50;19.17;;;7.60;99.90;;;;;;5053733;28;20888;-57
2023/02/11 00:09:37;;;;;;;28.80;19.80;;;7.60;99.90;;;;;;5053522;28;20449;-57
2023/02/11 00:12:04;;;;;;;28.50;20.17;;;7.60;99.90;;;;;;5053898;28;20441;-57
2023/02/11 00:14:31;;;;;;;33.40;23.20;;;7.50;99.90;;;;;;5053408;28;20473;-57
2023/02/11 00:16:58;;;;;;;29.77;21.90;;;7.50;99.90;;;;;;5053167;28;20445;-57
2023/02/11 00:19:24;;;;;;;30.30;20.03;;;7.50;99.90;;;;;;5053233;28;20422;-57
2023/02/11 00:21:51;;;;;;;28.03;21.40;;;7.50;99.90;;;;;;5053498;28;20457;-58
2023/02/11 00:24:19;;;;;;;29.23;21.37;;;7.60;99.90;;;;;;5053301;28;20469;-56
2023/02/11 00:26:46;;;;;;;31.80;20.70;;;7.50;99.90;;;;;;5053634;28;20453;-57
2023/02/11 00:29:13;;;;;;;32.33;20.50;;;7.50;99.90;;;;;;5053175;28;20446;-56
2023/02/11 00:31:39;;;;;;;28.57;20.50;;;7.40;99.90;;;;;;5053383;28;20438;-58
2023/02/11 00:34:06;;;;;;;30.97;19.83;;;7.40;99.90;;;;;;5052931;28;21008;-58
2023/02/11 00:36:33;;;;;;;34.37;21.90;;;7.30;99.90;;;;;;5053261;28;20466;-58
2023/02/11 00:39:00;;;;;;;35.97;22.10;;;7.30;99.90;;;;;;5053233;28;20430;-57
2023/02/11 00:41:28;;;;;;;29.43;21.17;;;7.30;99.90;;;;;;5053260;28;20445;-58
2023/02/11 00:43:55;;;;;;;29.07;21.43;;;7.30;99.90;;;;;;5053109;28;20449;-57
2023/02/11 00:46:22;;;;;;;28.00;20.40;;;7.30;99.90;;;;;;5053762;28;20430;-57
2023/02/11 00:48:50;;;;;;;32.20;22.50;;;7.20;99.90;;;;;;5056971;28;20489;-57
2023/02/11 00:51:17;;;;;;;35.27;23.63;;;7.20;99.90;;;;;;5057375;28;20457;-57
2023/02/11 00:53:44;;;;;;;30.77;22.93;;;7.20;99.90;;;;;;5057295;28;20438;-56
2023/02/11 00:56:10;;;;;;;32.77;22.13;;;7.10;99.90;;;;;;5057195;28;20461;-57
2023/02/11 00:58:38;;;;;;;35.27;23.50;;;7.20;99.90;;;;;;5057249;28;20499;-58
2023/02/11 01:01:06;;;;;;;32.80;23.10;;;7.10;99.90;;;;;;5056834;28;20933;-57
2023/02/11 01:03:33;;;;;;;34.07;23.47;;;7.10;99.90;;;;;;5056990;28;20445;-57
2023/02/11 01:06:00;;;;;;;34.57;22.83;;;7.00;99.90;;;;;;5057228;28;20539;-57
2023/02/11 01:08:27;;;;;;;36.73;23.80;;;7.00;99.90;;;;;;5057069;28;20492;-57
2023/02/11 01:10:57;;;;;;;33.87;23.40;;;7.00;99.90;;;;;;5056577;28;20821;-57
2023/02/11 01:13:24;;;;;;;33.40;21.50;;;7.00;99.90;;;;;;5056457;28;20901;-56
2023/02/11 01:15:52;;;;;;;35.77;23.53;;;6.90;99.90;;;;;;5056755;28;20503;-57
2023/02/11 01:18:19;;;;;;;33.00;22.63;;;6.90;99.90;;;;;;5056774;28;20480;-58
2023/02/11 01:20:46;;;;;;;42.17;25.23;;;6.90;99.90;;;;;;5056781;28;20437;-57
2023/02/11 01:23:12;;;;;;;34.30;23.03;;;6.90;99.90;;;;;;5056336;28;20456;-57
2023/02/11 01:25:39;;;;;;;39.57;23.40;;;6.90;99.90;;;;;;5056726;28;20465;-58
2023/02/11 01:28:06;;;;;;;39.90;23.93;;;6.90;99.90;;;;;;5056314;28;20501;-58
2023/02/11 01:30:32;;;;;;;34.80;23.50;;;7.00;99.90;;;;;;5056573;28;20452;-57
2023/02/11 01:33:00;;;;;;;38.47;25.17;;;7.00;99.90;;;;;;5056520;28;20453;-58
2023/02/11 01:35:27;;;;;;;36.37;23.40;;;7.00;99.90;;;;;;5056666;28;20477;-58
2023/02/11 01:37:54;;;;;;;32.40;24.23;;;7.00;99.90;;;;;;5056570;28;20448;-57
2023/02/11 01:40:20;;;;;;;38.73;24.13;;;6.90;99.90;;;;;;5056518;28;20449;-56
2023/02/11 01:42:47;;;;;;;35.50;24.60;;;6.90;99.90;;;;;;5056507;28;20447;-56
2023/02/11 01:45:51;;;;;;;39.70;23.93;;;6.90;99.90;;;;;;5056269;28;20499;-57
2023/02/11 01:48:22;;;;;;;34.97;25.30;;;6.90;99.90;;;;;;5056415;28;20481;-56
2023/02/11 01:50:54;;;;;;;37.67;23.70;;;6.90;99.90;;;;;;5055923;28;20442;-57
2023/02/11 01:58:53;;;;;;;35.53;25.57;;;6.80;99.90;;;;;;5054923;28;20469;-57
2023/02/11 02:01:25;;;;;;;34.10;24.00;;;6.90;99.90;;;;;;5056023;28;20453;-55
2023/02/11 02:03:57;;;;;;;33.73;24.00;;;6.90;99.90;;;;;;5056004;28;20480;-59
2023/02/11 02:06:31;;;;;;;39.43;26.10;;;6.90;99.90;;;;;;5056064;28;20448;-57
2023/02/11 02:09:02;;;;;;;33.27;23.13;;;6.90;99.90;;;;;;5055796;28;20477;-56
2023/02/11 02:11:29;;;;;;;39.00;24.43;;;6.90;99.90;;;;;;5055924;28;20441;-56
2023/02/11 02:13:56;;;;;;;33.93;23.50;;;6.90;99.90;;;;;;5055234;28;20977;-55
2023/02/11 02:16:27;;;;;;;36.67;23.33;;;6.90;99.90;;;;;;5055827;28;20450;-56
2023/02/11 02:19:14;;;;;;;36.20;23.40;;;6.80;99.90;;;;;;5055435;28;20441;-57
2023/02/11 02:22:05;;;;;;;36.93;24.07;;;6.80;99.90;;;;;;5056319;28;20426;-57
2023/02/11 02:24:59;;;;;;;34.73;23.13;;;6.80;99.90;;;;;;5055327;28;20898;-55
2023/02/11 02:27:46;;;;;;;38.83;24.00;;;6.80;99.90;;;;;;5053958;28;20544;-56
2023/02/11 02:30:33;;;;;;;32.73;22.27;;;6.70;99.90;;;;;;5056527;28;20833;-57
2023/02/11 02:33:23;;;;;;;33.43;22.73;;;6.80;99.90;;;;;;5055529;28;20807;-56
2023/02/11 02:36:00;;;;;;;33.17;21.37;;;6.70;99.90;;;;;;5055297;28;21001;-56
2023/02/11 02:38:31;;;;;;;34.17;22.47;;;6.70;99.90;;;;;;5055689;28;20441;-56
2023/02/11 02:41:02;;;;;;;31.23;22.43;;;6.70;99.90;;;;;;5055851;28;20430;-57
2023/02/11 02:43:30;;;;;;;35.30;22.10;;;6.70;99.90;;;;;;5055502;28;20438;-55
2023/02/11 02:46:10;;;;;;;29.83;21.43;;;6.80;99.90;;;;;;5055467;28;20461;-56
2023/02/11 02:48:38;;;;;;;33.33;21.40;;;6.80;99.90;;;;;;5055186;28;20489;-56
2023/02/11 02:51:15;;;;;;;34.17;22.00;;;6.80;99.90;;;;;;5056170;28;20449;-56
2023/02/11 02:53:53;;;;;;;34.57;22.47;;;6.80;99.90;;;;;;5055703;28;20442;-56
2023/02/11 02:56:27;;;;;;;37.53;23.53;;;6.80;99.90;;;;;;5055846;28;20430;-56
2023/02/11 02:59:08;;;;;;;29.30;20.40;;;6.80;99.90;;;;;;5056121;28;20434;-56
2023/02/11 03:01:42;;;;;;;40.40;22.53;;;6.90;99.90;;;;;;5055775;28;20491;-55
2023/02/11 03:04:18;;;;;;;33.17;20.90;;;6.80;99.90;;;;;;5056545;28;20470;-56
2023/02/11 03:06:52;;;;;;;34.03;22.43;;;6.90;99.90;;;;;;5056642;28;20449;-56
2023/02/11 03:09:23;;;;;;;31.13;20.83;;;7.00;99.90;;;;;;5055878;28;20470;-55
2023/02/11 03:11:50;;;;;;;34.77;21.80;;;7.00;99.90;;;;;;5056235;28;20437;-56
2023/02/11 03:14:19;;;;;;;31.37;20.87;;;7.00;99.90;;;;;;5054524;28;20485;-56
2023/02/11 03:16:48;;;;;;;32.40;21.50;;;7.00;99.90;;;;;;5054204;28;20843;-56
2023/02/11 03:19:20;;;;;;;30.97;22.00;;;7.00;99.90;;;;;;5054213;28;20962;-56
2023/02/11 03:21:51;;;;;;;35.60;21.37;;;7.00;99.90;;;;;;5054496;28;20860;-56
2023/02/11 03:24:24;;;;;;;34.33;21.10;;;7.00;99.90;;;;;;5053956;28;20934;-55
2023/02/11 03:26:54;;;;;;;34.63;20.90;;;6.90;99.90;;;;;;5054444;28;20434;-56
2023/02/11 03:29:30;;;;;;;31.70;21.80;;;6.90;99.90;;;;;;5054276;28;20535;-56
2023/02/11 03:32:04;;;;;;;35.00;22.53;;;6.90;99.90;;;;;;5054287;28;20487;-57
2023/02/11 03:34:40;;;;;;;28.20;20.73;;;6.90;99.90;;;;;;5054483;28;20470;-56
2023/02/11 03:37:13;;;;;;;32.60;21.63;;;6.90;99.90;;;;;;5054246;28;20453;-56
2023/02/11 03:39:45;;;;;;;31.00;20.00;;;6.90;99.90;;;;;;5054161;28;20910;-57
2023/02/11 03:42:14;;;;;;;32.47;19.97;;;6.90;99.90;;;;;;5054033;28;20425;-56
2023/02/11 03:44:48;;;;;;;33.00;21.13;;;6.80;99.90;;;;;;5053830;28;20477;-56
2023/02/11 03:47:19;;;;;;;37.33;20.60;;;6.90;99.90;;;;;;5053602;28;20809;-57
2023/02/11 03:49:50;;;;;;;29.03;19.10;;;6.90;99.90;;;;;;5053694;28;20989;-56
2023/02/11 03:52:18;;;;;;;31.93;20.53;;;6.90;99.90;;;;;;5053925;28;20437;-56
2023/02/11 03:54:48;;;;;;;27.57;18.50;;;6.90;99.90;;;;;;5053785;28;20473;-56
2023/02/11 03:57:14;;;;;;;31.80;21.27;;;6.90;99.90;;;;;;5053855;28;20468;-56
2023/02/11 03:59:52;;;;;;;29.03;19.37;;;6.90;99.90;;;;;;5053767;28;20499;-56
2023/02/11 04:02:20;;;;;;;34.73;20.53;;;6.90;99.90;;;;;;5053911;28;20453;-56
2023/02/11 04:04:48;;;;;;;34.97;21.13;;;6.90;99.90;;;;;;5053235;28;20820;-56
2023/02/11 04:07:15;;;;;;;33.37;20.03;;;6.90;99.90;;;;;;5053664;28;20434;-57
2023/02/11 04:09:41;;;;;;;33.63;20.87;;;6.90;99.90;;;;;;5053552;28;20491;-56
2023/02/11 04:12:08;;;;;;;32.63;20.60;;;7.00;99.90;;;;;;5053502;28;20882;-56
2023/02/11 04:14:35;;;;;;;32.77;20.80;;;6.90;99.90;;;;;;5053425;28;20473;-56
2023/02/11 04:17:02;;;;;;;34.80;20.97;;;6.90;99.90;;;;;;5053241;28;20961;-56
2023/02/11 04:19:29;;;;;;;40.33;21.40;;;6.80;99.90;;;;;;5053543;28;20450;-56
2023/02/11 04:21:57;;;;;;;37.00;21.03;;;6.80;99.90;;;;;;5052379;28;20434;-56
2023/02/11 04:24:24;;;;;;;35.97;21.03;;;6.90;99.90;;;;;;5054148;28;20473;-56
2023/02/11 04:26:51;;;;;;;29.47;18.90;;;6.90;99.90;;;;;;5053643;28;20450;-57
2023/02/11 04:29:18;;;;;;;28.30;20.13;;;6.90;99.90;;;;;;5053007;28;21028;-57
2023/02/11 04:31:45;;;;;;;31.10;19.77;;;6.90;99.90;;;;;;5053269;28;20818;-56
2023/02/11 04:34:11;;;;;;;26.03;19.23;;;7.00;99.90;;;;;;5053207;28;20481;-57
2023/02/11 04:36:38;;;;;;;36.93;20.90;;;6.90;99.90;;;;;;5053228;28;20450;-57
2023/02/11 04:39:06;;;;;;;31.27;21.10;;;6.90;99.90;;;;;;5053427;28;20446;-55
2023/02/11 04:41:33;;;;;;;32.07;20.23;;;6.80;99.90;;;;;;5053190;28;20450;-56
2023/02/11 04:44:00;;;;;;;36.77;21.00;;;6.80;99.90;;;;;;5053225;28;20453;-57
2023/02/11 04:46:27;;;;;;;38.60;21.10;;;6.90;99.90;;;;;;5052939;28;20863;-57
2023/02/11 04:48:53;;;;;;;36.93;22.43;;;6.90;99.90;;;;;;5053074;28;20489;-57
2023/02/11 04:51:20;;;;;;;35.53;21.50;;;6.90;99.90;;;;;;5053100;28;20468;-56
2023/02/11 04:53:47;;;;;;;34.57;21.57;;;6.80;99.90;;;;;;5053055;28;20461;-57
2023/02/11 04:56:15;;;;;;;38.97;21.93;;;6.90;99.90;;;;;;5053937;28;20458;-57
2023/02/11 04:58:41;;;;;;;38.23;21.00;;;6.90;99.90;;;;;;5053095;28;20449;-57
2023/02/11 05:01:09;;;;;;;33.33;21.47;;;6.90;99.90;;;;;;5053032;28;20468;-57
2023/02/11 05:03:36;;;;;;;40.77;23.27;;;6.90;99.90;;;;;;5053056;28;20446;-57
2023/02/11 05:06:04;;;;;;;33.93;23.30;;;6.90;99.90;;;;;;5052960;28;20473;-57
2023/02/11 05:08:31;;;;;;;36.50;21.47;;;6.80;99.90;;;;;;5053790;28;21084;-57
2023/02/11 05:10:58;;;;;;;40.27;22.00;;;6.80;99.90;;;;;;5052860;28;20457;-56
2023/02/11 05:13:26;;;;;;;33.50;21.03;;;6.80;99.90;;;;;;5052413;28;20449;-56
2023/02/11 05:15:53;;;;;;;36.80;20.60;;;6.90;99.90;;;;;;5052847;28;20469;-57
2023/02/11 05:18:20;;;;;;;34.57;21.70;;;7.00;99.90;;;;;;5052858;28;20441;-57
2023/02/11 05:20:46;;;;;;;39.93;24.97;;;6.90;99.90;;;;;;5052888;28;20462;-57
2023/02/11 05:23:13;;;;;;;37.17;23.07;;;6.90;99.90;;;;;;5052826;28;20453;-57
2023/02/11 05:25:40;;;;;;;37.00;23.80;;;7.00;99.90;;;;;;5052763;28;20468;-57
2023/02/11 05:28:07;;;;;;;37.70;24.30;;;6.80;99.90;;;;;;5052474;28;20949;-57
2023/02/11 05:30:35;;;;;;;35.27;22.73;;;6.80;99.90;;;;;;5052522;28;20950;-57
2023/02/11 05:33:01;;;;;;;36.47;22.13;;;6.80;99.90;;;;;;5054241;28;20445;-57
2023/02/11 05:35:28;;;;;;;48.10;25.70;;;6.80;99.90;;;;;;5056490;28;20469;-57
2023/02/11 05:37:55;;;;;;;41.43;25.50;;;6.80;99.90;;;;;;5056529;28;20454;-57
2023/02/11 05:40:21;;;;;;;46.13;25.17;;;6.70;99.90;;;;;;5056349;28;20437;-57
2023/02/11 05:42:48;;;;;;;45.20;26.00;;;6.60;99.90;;;;;;5056318;28;20449;-56
2023/02/11 05:45:15;;;;;;;42.83;27.43;;;6.70;99.90;;;;;;5055819;28;20472;-56
2023/02/11 05:47:43;;;;;;;38.63;25.47;;;6.70;99.90;;;;;;5056218;28;20472;-57
2023/02/11 05:50:09;;;;;;;44.07;24.53;;;6.80;99.90;;;;;;5056156;28;20497;-57
2023/02/11 05:52:36;;;;;;;45.73;27.00;;;6.80;99.90;;;;;;5056216;28;20507;-57
2023/02/11 05:55:03;;;;;;;47.30;26.00;;;6.70;99.90;;;;;;5056079;28;20465;-57
2023/02/11 05:57:30;;;;;;;50.77;26.00;;;6.70;99.90;;;;;;5056208;28;20435;-57
2023/02/11 05:59:57;;;;;;;49.27;26.43;;;6.70;99.90;;;;;;5056033;28;20438;-57
2023/02/11 06:02:23;;;;;;;50.87;30.60;;;6.70;99.90;;;;;;5055971;28;20823;-57
2023/02/11 06:04:51;;;;;;;50.70;27.23;;;6.60;99.90;;;;;;5055873;28;20477;-57
2023/02/11 06:07:18;;;;;;;43.50;26.83;;;6.60;99.90;;;;;;5055932;28;20434;-57
2023/02/11 06:09:45;;;;;;;46.30;26.60;;;6.70;99.90;;;;;;5056097;28;20478;-57
2023/02/11 06:12:12;;;;;;;52.17;27.53;;;6.70;99.90;;;;;;5055763;28;20507;-55
2023/02/11 06:14:38;;;;;;;48.07;29.60;;;6.70;99.90;;;;;;5055566;28;20473;-56
2023/02/11 06:17:05;;;;;;;61.50;28.77;;;6.70;99.90;;;;;;5055782;28;20436;-57
2023/02/11 06:19:32;;;;;;;50.93;30.67;;;6.70;99.90;;;;;;5056083;28;20426;-57
2023/02/11 06:22:00;;;;;;;50.07;29.83;;;6.70;99.90;;;;;;5055197;28;20942;-56
2023/02/11 06:24:27;;;;;;;42.80;27.80;;;6.70;99.90;;;;;;5055411;28;20477;-57
2023/02/11 06:26:54;;;;;;;45.13;26.93;;;6.70;99.90;;;;;;5055560;28;20462;-57
2023/02/11 06:29:20;;;;;;;46.90;29.20;;;6.70;99.90;;;;;;5055435;28;20573;-56
2023/02/11 06:31:47;;;;;;;40.53;26.20;;;6.80;99.90;;;;;;5055417;28;20465;-57
2023/02/11 06:34:14;;;;;;;49.33;28.07;;;6.80;99.90;;;;;;5055281;28;20481;-57
2023/02/11 06:36:41;;;;;;;42.33;26.40;;;6.80;99.90;;;;;;5055043;28;20456;-57
2023/02/11 06:39:10;;;;;;;47.70;27.47;;;6.70;99.90;;;;;;5055376;28;20477;-56
2023/02/11 06:41:36;;;;;;;54.13;30.70;;;6.80;99.90;;;;;;5055225;28;20449;-57
2023/02/11 06:44:03;;;;;;;48.70;29.10;;;6.80;99.90;;;;;;5054224;28;20458;-57
2023/02/11 06:46:30;;;;;;;48.30;28.30;;;6.80;99.90;;;;;;5055157;28;20437;-57
2023/02/11 06:48:57;;;;;;;54.43;29.13;;;6.80;99.90;;;;;;5054644;28;20489;-57
2023/02/11 06:51:24;;;;;;;46.60;28.63;;;6.80;99.90;;;;;;5054734;28;20937;-57
2023/02/11 06:53:51;;;;;;;45.67;28.10;;;6.80;99.90;;;;;;5054944;28;20450;-57
2023/02/11 06:56:20;;;;;;;54.07;26.93;;;6.90;99.90;;;;;;5054722;28;20817;-57
2023/02/11 06:58:47;;;;;;;64.13;29.00;;;6.90;99.90;;;;;;5055501;28;20444;-57
2023/02/11 07:01:16;;;;;;;43.93;27.53;;;6.90;99.90;;;;;;5054933;28;20453;-57
2023/02/11 07:03:44;;;;;;;50.47;28.17;;;6.90;99.90;;;;;;5054874;28;20453;-57
2023/02/11 07:06:14;;;;;;;54.23;29.10;;;6.90;99.90;;;;;;5054823;28;20533;-56
2023/02/11 07:08:42;;;;;;;52.20;29.57;;;6.90;99.90;;;;;;5054750;28;20798;-57
2023/02/11 07:11:10;;;;;;;60.77;30.27;;;6.90;99.90;;;;;;5054675;28;20430;-56
2023/02/11 07:13:39;;;;;;;56.40;29.70;;;6.90;99.90;;;;;;5054638;28;20474;-57
2023/02/11 07:16:06;;;;;;;65.50;30.27;;;7.00;99.90;;;;;;5054555;28;20473;-57
2023/02/11 07:18:33;;;;;;;48.90;29.33;;;6.90;99.90;;;;;;5054519;28;20449;-57
2023/02/11 07:21:03;;;;;;;49.07;26.87;;;6.90;99.90;;;;;;5054510;28;20449;-57
2023/02/11 07:23:30;;;;;;;62.53;30.10;;;6.90;99.90;;;;;;5054168;28;20948;-57
2023/02/11 07:25:57;;;;;;;47.13;27.33;;;6.90;99.90;;;;;;5054019;28;20840;-57
2023/02/11 07:28:23;;;;;;;53.60;28.87;;;6.90;99.90;;;;;;5054397;28;20449;-57
2023/02/11 07:30:51;;;;;;;58.63;29.77;;;7.00;99.90;;;;;;5054201;28;20560;-56
2023/02/11 07:33:18;;;;;;;48.63;28.53;;;6.90;99.90;;;;;;5054520;28;20462;-57
2023/02/11 07:35:45;;;;;;;50.80;29.13;;;7.00;99.90;;;;;;5054069;28;20985;-57
2023/02/11 07:38:11;;;;;;;48.83;29.50;;;7.00;99.90;;;;;;5054197;28;20453;-57
2023/02/11 07:40:38;;;;;;;63.30;31.10;;;7.00;99.90;;;;;;5054364;28;20446;-57
2023/02/11 07:43:05;;;;;;;47.83;28.87;;;7.00;99.90;;;;;;5054091;28;20433;-57
2023/02/11 07:45:31;;;;;;;51.00;30.03;;;7.00;99.90;;;;;;5054011;28;20469;-56
2023/02/11 07:47:59;;;;;;;68.50;31.03;;;7.00;99.90;;;;;;5053776;28;20464;-57
2023/02/11 07:50:26;;;;;;;62.43;31.73;;;7.10;99.90;;;;;;5054054;28;20477;-57
2023/02/11 07:52:53;;;;;;;70.33;32.47;;;7.10;99.90;;;;;;5053963;28;20450;-56
2023/02/11 07:55:19;;;;;;;54.07;30.00;;;7.10;99.90;;;;;;5054002;28;20469;-57
2023/02/11 07:57:46;;;;;;;66.60;31.90;;;7.10;99.90;;;;;;5053866;28;20471;-57
2023/02/11 08:00:14;;;;;;;60.93;31.10;;;7.10;99.90;;;;;;5053474;28;20441;-57
2023/02/11 08:02:41;;;;;;;56.53;30.77;;;7.20;99.90;;;;;;5053698;28;20489;-57
2023/02/11 08:05:09;;;;;;;54.93;29.57;;;7.20;99.90;;;;;;5053750;28;20480;-57
2023/02/11 08:07:36;;;;;;;59.40;29.93;;;7.20;99.90;;;;;;5053841;28;20532;-57
2023/02/11 08:10:03;;;;;;;58.47;29.57;;;7.10;99.90;;;;;;5053652;28;20478;-57
2023/02/11 08:12:30;;;;;;;62.97;29.50;;;7.10;99.90;;;;;;5053754;28;20430;-57
2023/02/11 08:14:57;;;;;;;52.30;30.47;;;7.20;99.90;;;;;;5053292;28;20489;-56
2023/02/11 08:17:23;;;;;;;58.53;31.13;;;7.20;99.90;;;;;;5053519;28;20441;-56
2023/02/11 08:19:50;;;;;;;57.90;31.17;;;7.20;99.90;;;;;;5053246;28;20821;-57
2023/02/11 08:22:18;;;;;;;59.57;28.50;;;7.30;99.90;;;;;;5053256;28;21001;-57
2023/02/11 08:24:45;;;;;;;56.40;29.67;;;7.30;99.90;;;;;;5053333;28;20477;-57
2023/02/11 08:27:12;;;;;;;64.63;32.00;;;7.20;99.90;;;;;;5053454;28;20440;-57
2023/02/11 08:29:38;;;;;;;55.80;30.83;;;7.30;99.90;;;;;;5053384;28;20478;-57
2023/02/11 08:32:05;;;;;;;57.43;30.80;;;7.30;99.90;;;;;;5052999;28;20869;-56
2023/02/11 08:34:32;;;;;;;65.83;31.37;;;7.30;99.90;;;;;;5053319;28;20473;-57
2023/02/11 08:36:59;;;;;;;54.03;29.97;;;7.30;99.90;;;;;;5053450;28;20492;-57
2023/02/11 08:39:27;;;;;;;67.07;31.90;;;7.30;99.90;;;;;;5053366;28;20433;-57
2023/02/11 08:41:55;;;;;;;60.10;32.27;;;7.30;99.90;;;;;;5052986;28;20441;-57
2023/02/11 08:44:22;;;;;;;63.07;31.70;;;7.30;99.90;;;;;;5052983;28;20982;-57
2023/02/11 08:46:50;;;;;;;61.57;29.93;;;7.30;99.90;;;;;;5053251;28;20453;-57
2023/02/11 08:49:17;;;;;;;65.00;32.30;;;7.30;99.90;;;;;;5053126;28;20430;-56
2023/02/11 08:51:45;;;;;;;66.43;31.93;;;7.40;99.90;;;;;;5053225;28;20449;-56
2023/02/11 08:54:12;;;;;;;75.60;31.90;;;7.40;99.90;;;;;;5052799;28;21008;-57
2023/02/11 08:56:40;;;;;;;63.27;32.40;;;7.50;99.90;;;;;;5053048;28;20507;-57
2023/02/11 08:59:08;;;;;;;68.57;31.77;;;7.40;99.90;;;;;;5052944;28;20453;-56
2023/02/11 09:01:35;;;;;;;57.20;32.17;;;7.40;99.90;;;;;;5052999;28;20445;-57
2023/02/11 09:04:01;;;;;;;74.07;32.13;;;7.40;99.90;;;;;;5053078;28;20434;-58
2023/02/11 09:06:28;;;;;;;59.70;31.40;;;7.40;99.90;;;;;;5068221;28;20524;-57
2023/02/11 09:08:57;;;;;;;75.67;31.70;;;7.40;99.90;;;;;;5076333;28;20460;-57
2023/02/11 09:11:27;;;;;;;67.27;32.03;;;7.40;99.90;;;;;;5077116;28;20488;-56
2023/02/11 09:13:55;;;;;;;62.37;32.50;;;7.50;99.90;;;;;;5073109;28;20441;-57
2023/02/11 09:16:24;;;;;;;63.90;33.87;;;7.50;99.90;;;;;;5056594;28;20949;-56
2023/02/11 09:18:52;;;;;;;73.23;33.40;;;7.50;99.90;;;;;;5057048;28;20430;-57
2023/02/11 09:21:20;;;;;;;67.07;31.70;;;7.50;99.90;;;;;;5056850;28;20931;-55
2023/02/11 09:23:47;;;;;;;74.30;34.90;;;7.50;99.90;;;;;;5056946;28;20790;-56
2023/02/11 09:26:16;;;;;;;75.30;34.83;;;7.50;99.90;;;;;;5057021;28;20838;-57
2023/02/11 09:28:43;;;;;;;67.73;32.90;;;7.50;99.90;;;;;;5057124;28;20460;-57
2023/02/11 09:31:14;;;;;;;69.33;34.90;;;7.60;99.90;;;;;;5056726;28;20481;-57
2023/02/11 09:33:46;;;;;;;61.03;32.23;;;7.60;99.90;;;;;;5056917;28;20429;-55
2023/02/11 09:36:14;;;;;;;61.07;32.73;;;7.60;99.90;;;;;;5056682;28;20433;-57
2023/02/11 09:38:41;;;;;;;66.93;30.33;;;7.60;99.90;;;;;;5054954;28;20445;-57
2023/02/11 09:41:33;;;;;;;63.43;31.10;;;7.60;99.90;;;;;;5054866;28;20453;-57
2023/02/11 09:44:03;;;;;;;67.30;31.50;;;7.60;99.90;;;;;;5054416;28;20540;-56
2023/02/11 09:46:35;;;;;;;54.43;31.83;;;7.60;99.90;;;;;;5054909;28;20437;-57
2023/02/11 09:49:03;;;;;;;72.80;34.93;;;7.60;99.90;;;;;;5056216;28;20457;-57
2023/02/11 09:51:36;;;;;;;67.53;36.17;;;7.50;99.90;;;;;;5056124;28;20519;-56
2023/02/11 09:54:11;;;;;;;60.20;34.27;;;7.60;99.90;;;;;;5056198;28;20442;-57
2023/02/11 09:56:38;;;;;;;67.43;34.17;;;7.60;99.90;;;;;;5056127;28;20438;-57
2023/02/11 09:59:05;;;;;;;59.73;32.53;;;7.60;99.90;;;;;;5056137;28;20485;-57
2023/02/11 10:01:39;;;;;;;67.13;33.83;;;7.60;99.90;;;;;;5056117;28;20422;-57
2023/02/11 10:04:14;;;;;;;70.07;35.10;;;7.50;99.90;;;;;;5055997;28;20433;-57
2023/02/11 10:06:46;;;;;;;61.57;31.33;;;7.50;99.90;;;;;;5055992;28;20437;-57
2023/02/11 10:09:43;;;;;;;71.73;32.87;;;7.50;99.90;;;;;;5055945;28;20434;-57
2023/02/11 10:12:37;;;;;;;62.50;33.73;;;7.50;99.90;;;;;;5055827;28;20430;-56
2023/02/11 10:15:14;;;;;;;66.30;32.67;;;7.50;99.90;;;;;;5055732;28;20484;-57
2023/02/11 10:17:55;;;;;;;70.13;33.33;;;7.50;99.90;;;;;;5056091;28;20437;-57
2023/02/11 10:20:30;;;;;;;56.53;31.13;;;7.50;99.90;;;;;;5054574;28;20794;-57
2023/02/11 10:23:00;;;;;;;66.63;32.53;;;7.60;99.90;;;;;;5055699;28;20425;-57
2023/02/11 10:25:29;;;;;;;59.80;31.20;;;7.50;99.90;;;;;;5055600;28;20556;-57
2023/02/11 10:27:59;;;;;;;70.70;34.43;;;7.60;99.90;;;;;;5055644;28;20434;-57
2023/02/11 10:30:30;;;;;;;65.70;33.10;;;7.60;99.90;;;;;;5055508;28;20496;-56
2023/02/11 10:33:02;;;;;;;64.00;31.70;;;7.60;99.90;;;;;;5055613;28;20430;-57
2023/02/11 10:35:29;;;;;;;66.67;35.47;;;7.60;99.90;;;;;;5055334;28;20465;-56
2023/02/11 10:37:56;;;;;;;72.47;31.87;;;7.60;99.90;;;;;;5055292;28;20773;-56
2023/02/11 10:40:25;;;;;;;81.50;34.87;;;7.60;99.90;;;;;;5055348;28;20426;-56
2023/02/11 10:42:53;;;;;;;70.43;33.80;;;7.60;99.90;;;;;;5055279;28;20461;-57
2023/02/11 10:45:25;;;;;;;70.97;33.70;;;7.60;99.90;;;;;;5055113;28;20841;-57
2023/02/11 10:47:54;;;;;;;65.63;33.97;;;7.60;99.90;;;;;;5054985;28;20469;-57
2023/02/11 10:50:24;;;;;;;73.57;32.63;;;7.60;99.90;;;;;;5054734;28;21059;-57
2023/02/11 10:52:51;;;;;;;68.97;32.10;;;7.70;99.90;;;;;;5054715;28;20922;-56
2023/02/11 10:55:20;;;;;;;65.70;32.80;;;7.70;99.90;;;;;;5054655;28;20984;-57
2023/02/11 10:57:55;;;;;;;61.90;33.03;;;7.70;99.90;;;;;;5055489;28;20427;-57
2023/02/11 11:00:35;;;;;;;72.90;33.80;;;7.80;99.90;;;;;;5054734;28;20424;-57
2023/02/11 11:03:03;;;;;;;62.37;32.83;;;7.80;99.90;;;;;;5054917;28;20440;-56
2023/02/11 11:05:35;;;;;;;69.67;33.37;;;7.80;99.90;;;;;;5054747;28;20469;-56
2023/02/11 11:08:04;;;;;;;61.73;32.30;;;7.90;99.90;;;;;;5054972;28;20433;-57
2023/02/11 11:10:42;;;;;;;72.67;34.47;;;7.90;99.90;;;;;;5054694;28;20481;-57
2023/02/11 11:13:31;;;;;;;69.13;33.87;;;7.90;99.90;;;;;;5055562;28;20469;-57
2023/02/11 11:16:18;;;;;;;74.53;34.03;;;7.90;99.90;;;;;;5054552;28;20461;-56
2023/02/11 11:18:46;;;;;;;67.63;34.67;;;7.90;99.90;;;;;;5054744;28;20425;-57
2023/02/11 11:21:18;;;;;;;67.87;31.10;;;7.90;99.90;;;;;;5054636;28;20434;-57
2023/02/11 11:23:52;;;;;;;61.43;31.90;;;8.00;99.90;;;;;;5055314;28;20453;-56
2023/02/11 11:26:19;;;;;;;69.03;33.53;;;8.00;99.90;;;;;;5054891;28;20426;-57
2023/02/11 11:28:56;;;;;;;68.90;32.77;;;8.00;99.90;;;;;;5054533;28;20431;-57
2023/02/11 11:31:26;;;;;;;70.60;36.63;;;8.00;99.90;;;;;;5054538;28;20562;-56
2023/02/11 11:33:57;;;;;;;63.77;33.40;;;8.00;99.90;;;;;;5061770;28;20803;-56
2023/02/11 11:36:34;;;;;;;66.33;33.70;;;8.00;99.90;;;;;;5057108;28;20426;-56
2023/02/11 11:39:03;;;;;;;70.00;35.00;;;8.00;99.90;;;;;;5054574;28;20425;-56
2023/02/11 11:41:33;;;;;;;65.70;33.53;;;8.00;99.90;;;;;;5054579;28;20429;-56
2023/02/11 11:44:03;;;;;;;65.20;33.57;;;8.00;99.90;;;;;;5053968;28;20453;-57
2023/02/11 11:46:33;;;;;;;74.97;34.70;;;8.00;99.90;;;;;;5054068;28;20493;-57
2023/02/11 11:49:07;;;;;;;71.37;37.30;;;8.00;99.90;;;;;;5053767;28;20964;-57
2023/02/11 11:51:38;;;;;;;66.90;33.80;;;8.10;99.90;;;;;;5054189;28;20468;-57
2023/02/11 11:54:11;;;;;;;67.03;34.30;;;8.10;99.90;;;;;;5053682;28;20426;-57
2023/02/11 11:56:44;;;;;;;78.60;34.20;;;8.10;99.90;;;;;;5054153;28;20440;-57
2023/02/11 11:59:15;;;;;;;72.63;34.20;;;8.20;99.90;;;;;;5054064;28;20433;-57
2023/02/11 12:01:50;;;;;;;69.97;33.53;;;8.30;99.90;;;;;;5053893;28;20433;-57
2023/02/11 12:04:32;;;;;;;70.17;32.90;;;8.30;99.90;;;;;;5053839;28;20477;-58
2023/02/11 12:07:26;;;;;;;69.03;36.60;;;8.30;99.90;;;;;;5054087;28;20438;-57
2023/02/11 12:10:06;;;;;;;72.87;35.83;;;8.40;99.90;;;;;;5053905;28;20846;-57
2023/02/11 12:12:46;;;;;;;68.33;34.77;;;8.30;99.90;;;;;;5054622;28;20777;-57
2023/02/11 12:15:29;;;;;;;74.03;34.73;;;8.40;99.90;;;;;;5053732;28;20469;-57
2023/02/11 12:18:11;;;;;;;62.50;33.57;;;8.40;99.90;;;;;;5053636;28;20437;-57
2023/02/11 12:20:53;;;;;;;77.73;33.97;;;8.50;99.90;;;;;;5053864;28;20430;-57
2023/02/11 12:23:38;;;;;;;69.40;35.20;;;8.40;99.90;;;;;;5053293;28;20910;-57
2023/02/11 12:26:13;;;;;;;79.00;36.03;;;8.50;99.90;;;;;;5053914;28;20469;-57
2023/02/11 12:28:51;;;;;;;67.27;35.37;;;8.50;99.90;;;;;;5053475;28;20429;-57
2023/02/11 12:31:30;;;;;;;69.70;33.87;;;8.50;99.90;;;;;;5053336;28;20465;-57
2023/02/11 12:34:16;;;;;;;73.10;35.27;;;8.50;99.90;;;;;;5053326;28;20433;-57
2023/02/11 12:36:55;;;;;;;58.07;34.50;;;8.60;99.90;;;;;;5053522;28;20448;-57
2023/02/11 12:39:33;;;;;;;66.83;34.70;;;8.70;99.90;;;;;;5053037;28;20491;-57
2023/02/11 12:45:21;;;;;;;62.70;32.77;;;8.70;99.90;;;;;;5053076;28;20483;-58
2023/02/11 12:48:00;;;;;;;66.67;33.50;;;8.60;99.90;;;;;;5053156;28;20453;-58
2023/02/11 12:50:34;;;;;;;69.30;37.30;;;8.60;99.90;;;;;;5052869;28;20922;-58
2023/02/11 12:53:27;;;;;;;73.57;34.87;;;8.60;99.90;;;;;;5052986;28;20438;-57
2023/02/11 12:55:59;;;;;;;76.80;36.80;;;8.60;99.90;;;;;;5053103;28;20461;-58
2023/02/11 12:58:29;;;;;;;65.90;35.27;;;8.60;99.90;;;;;;5053216;28;20430;-58
2023/02/11 13:01:03;;;;;;;70.10;38.83;;;8.70;99.90;;;;;;5053216;28;20529;-57